sensor_id;sensor_type;location;lat;lon;timestamp;P1;durP1;ratioP1;P2;durP2;ratioP2
2998;SDS011;1509;51.964;7.628;2024-02-21T00:02:19;19.07;;;10.17;;
2998;SDS011;1509;51.964;7.628;2024-02-21T00:04:45;17.03;;;9.80;;
2998;SDS011;1509;51.964;7.628;2024-02-21T00:07:10;23.43;;;10.53;;
2998;SDS011;1509;51.964;7.628;2024-02-21T00:09:36;20.00;;;10.00;;
2998;SDS011;1509;51.964;7.628;2024-02-21T00:12:01;16.70;;;10.30;;
2998;SDS011;1509;51.964;7.628;2024-02-21T00:14:28;20.27;;;10.40;;
2998;SDS011;1509;51.964;7.628;2024-02-21T00:16:53;13.30;;;8.70;;
2998;SDS011;1509;51.964;7.628;2024-02-21T00:19:19;24.07;;;10.40;;
2998;SDS011;1509;51.964;7.628;2024-02-21T00:21:45;19.27;;;10.47;;
2998;SDS011;1509;51.964;7.628;2024-02-21T00:24:10;23.00;;;9.00;;
2998;SDS011;1509;51.964;7.628;2024-02-21T00:26:36;15.80;;;9.90;;
2998;SDS011;1509;51.964;7.628;2024-02-21T00:29:01;23.13;;;10.33;;
2998;SDS011;1509;51.964;7.628;2024-02-21T00:31:27;17.57;;;9.93;;
2998;SDS011;1509;51.964;7.628;2024-02-21T00:33:52;18.70;;;11.30;;
2998;SDS011;1509;51.964;7.628;2024-02-21T00:36:18;17.23;;;9.83;;
2998;SDS011;1509;51.964;7.628;2024-02-21T00:38:43;19.23;;;10.03;;
2998;SDS011;1509;51.964;7.628;2024-02-21T00:41:09;19.40;;;9.77;;
2998;SDS011;1509;51.964;7.628;2024-02-21T00:43:35;16.43;;;9.90;;
2998;SDS011;1509;51.964;7.628;2024-02-21T00:46:01;24.53;;;9.83;;
2998;SDS011;1509;51.964;7.628;2024-02-21T00:48:26;22.00;;;10.50;;
2998;SDS011;1509;51.964;7.628;2024-02-21T00:50:52;23.07;;;10.87;;
2998;SDS011;1509;51.964;7.628;2024-02-21T00:53:17;17.53;;;11.20;;
2998;SDS011;1509;51.964;7.628;2024-02-21T00:55:43;20.77;;;10.57;;
2998;SDS011;1509;51.964;7.628;2024-02-21T00:58:09;19.90;;;11.10;;
2998;SDS011;1509;51.964;7.628;2024-02-21T01:00:34;19.83;;;10.60;;
2998;SDS011;1509;51.964;7.628;2024-02-21T01:03:00;20.93;;;10.93;;
2998;SDS011;1509;51.964;7.628;2024-02-21T01:05:25;26.83;;;13.10;;
2998;SDS011;1509;51.964;7.628;2024-02-21T01:07:54;22.73;;;11.70;;
2998;SDS011;1509;51.964;7.628;2024-02-21T01:10:19;19.60;;;11.30;;
2998;SDS011;1509;51.964;7.628;2024-02-21T01:12:48;25.03;;;12.27;;
2998;SDS011;1509;51.964;7.628;2024-02-21T01:15:13;28.13;;;12.90;;
2998;SDS011;1509;51.964;7.628;2024-02-21T01:17:39;23.00;;;12.50;;
2998;SDS011;1509;51.964;7.628;2024-02-21T01:20:05;26.87;;;13.53;;
2998;SDS011;1509;51.964;7.628;2024-02-21T01:22:32;26.10;;;14.40;;
2998;SDS011;1509;51.964;7.628;2024-02-21T01:24:58;17.20;;;11.00;;
2998;SDS011;1509;51.964;7.628;2024-02-21T01:27:23;21.50;;;11.50;;
2998;SDS011;1509;51.964;7.628;2024-02-21T01:29:49;21.60;;;11.33;;
2998;SDS011;1509;51.964;7.628;2024-02-21T01:32:15;23.40;;;13.23;;
2998;SDS011;1509;51.964;7.628;2024-02-21T01:34:40;20.23;;;11.70;;
2998;SDS011;1509;51.964;7.628;2024-02-21T01:37:06;25.90;;;13.20;;
2998;SDS011;1509;51.964;7.628;2024-02-21T01:39:32;20.80;;;12.13;;
2998;SDS011;1509;51.964;7.628;2024-02-21T01:41:58;19.77;;;10.90;;
2998;SDS011;1509;51.964;7.628;2024-02-21T01:44:24;24.00;;;12.33;;
2998;SDS011;1509;51.964;7.628;2024-02-21T01:46:50;22.13;;;11.20;;
2998;SDS011;1509;51.964;7.628;2024-02-21T01:49:19;23.33;;;12.73;;
2998;SDS011;1509;51.964;7.628;2024-02-21T01:51:46;18.63;;;12.13;;
2998;SDS011;1509;51.964;7.628;2024-02-21T01:54:13;29.33;;;12.20;;
2998;SDS011;1509;51.964;7.628;2024-02-21T01:56:42;28.13;;;11.80;;
2998;SDS011;1509;51.964;7.628;2024-02-21T01:59:08;22.90;;;12.30;;
2998;SDS011;1509;51.964;7.628;2024-02-21T02:01:34;23.70;;;12.20;;
2998;SDS011;1509;51.964;7.628;2024-02-21T02:04:00;20.77;;;11.00;;
2998;SDS011;1509;51.964;7.628;2024-02-21T02:06:25;24.67;;;11.23;;
2998;SDS011;1509;51.964;7.628;2024-02-21T02:08:52;20.63;;;11.33;;
2998;SDS011;1509;51.964;7.628;2024-02-21T02:11:18;17.80;;;11.97;;
2998;SDS011;1509;51.964;7.628;2024-02-21T02:13:43;25.45;;;11.35;;
2998;SDS011;1509;51.964;7.628;2024-02-21T02:16:09;19.20;;;10.93;;
2998;SDS011;1509;51.964;7.628;2024-02-21T02:18:35;22.40;;;11.90;;
2998;SDS011;1509;51.964;7.628;2024-02-21T02:21:00;21.47;;;10.90;;
2998;SDS011;1509;51.964;7.628;2024-02-21T02:23:29;21.50;;;12.37;;
2998;SDS011;1509;51.964;7.628;2024-02-21T02:25:56;16.90;;;10.43;;
2998;SDS011;1509;51.964;7.628;2024-02-21T02:28:22;23.40;;;12.47;;
2998;SDS011;1509;51.964;7.628;2024-02-21T02:30:48;17.80;;;11.20;;
2998;SDS011;1509;51.964;7.628;2024-02-21T02:33:14;17.13;;;10.40;;
2998;SDS011;1509;51.964;7.628;2024-02-21T02:35:40;19.30;;;11.50;;
2998;SDS011;1509;51.964;7.628;2024-02-21T02:38:05;22.60;;;11.63;;
2998;SDS011;1509;51.964;7.628;2024-02-21T02:40:32;22.10;;;10.93;;
2998;SDS011;1509;51.964;7.628;2024-02-21T02:42:59;19.53;;;11.77;;
2998;SDS011;1509;51.964;7.628;2024-02-21T02:45:25;20.53;;;11.83;;
2998;SDS011;1509;51.964;7.628;2024-02-21T02:47:53;24.90;;;11.97;;
2998;SDS011;1509;51.964;7.628;2024-02-21T02:50:20;23.43;;;12.80;;
2998;SDS011;1509;51.964;7.628;2024-02-21T02:52:45;18.67;;;10.07;;
2998;SDS011;1509;51.964;7.628;2024-02-21T02:55:11;19.33;;;10.90;;
2998;SDS011;1509;51.964;7.628;2024-02-21T02:57:37;17.83;;;10.77;;
2998;SDS011;1509;51.964;7.628;2024-02-21T03:00:03;22.33;;;12.03;;
2998;SDS011;1509;51.964;7.628;2024-02-21T03:02:29;24.10;;;11.13;;
2998;SDS011;1509;51.964;7.628;2024-02-21T03:04:56;20.57;;;11.87;;
2998;SDS011;1509;51.964;7.628;2024-02-21T03:07:22;22.67;;;10.73;;
2998;SDS011;1509;51.964;7.628;2024-02-21T03:09:49;21.63;;;11.37;;
2998;SDS011;1509;51.964;7.628;2024-02-21T03:12:15;22.77;;;12.33;;
2998;SDS011;1509;51.964;7.628;2024-02-21T03:14:49;20.40;;;11.13;;
2998;SDS011;1509;51.964;7.628;2024-02-21T03:17:15;18.83;;;11.47;;
2998;SDS011;1509;51.964;7.628;2024-02-21T03:19:40;23.03;;;11.60;;
2998;SDS011;1509;51.964;7.628;2024-02-21T03:22:06;22.27;;;11.47;;
2998;SDS011;1509;51.964;7.628;2024-02-21T03:24:32;21.37;;;11.53;;
2998;SDS011;1509;51.964;7.628;2024-02-21T03:26:58;18.53;;;11.00;;
2998;SDS011;1509;51.964;7.628;2024-02-21T03:29:24;24.50;;;11.53;;
2998;SDS011;1509;51.964;7.628;2024-02-21T03:31:50;18.30;;;12.20;;
2998;SDS011;1509;51.964;7.628;2024-02-21T03:34:16;20.10;;;11.93;;
2998;SDS011;1509;51.964;7.628;2024-02-21T03:36:41;22.80;;;11.67;;
2998;SDS011;1509;51.964;7.628;2024-02-21T03:39:07;20.63;;;12.53;;
2998;SDS011;1509;51.964;7.628;2024-02-21T03:41:34;20.40;;;11.37;;
2998;SDS011;1509;51.964;7.628;2024-02-21T03:44:00;22.10;;;10.70;;
2998;SDS011;1509;51.964;7.628;2024-02-21T03:46:26;20.07;;;10.30;;
2998;SDS011;1509;51.964;7.628;2024-02-21T03:48:52;17.80;;;11.40;;
2998;SDS011;1509;51.964;7.628;2024-02-21T03:51:18;19.83;;;11.73;;
2998;SDS011;1509;51.964;7.628;2024-02-21T03:53:44;23.43;;;10.53;;
2998;SDS011;1509;51.964;7.628;2024-02-21T03:56:09;24.53;;;10.90;;
2998;SDS011;1509;51.964;7.628;2024-02-21T03:58:35;16.20;;;9.90;;
2998;SDS011;1509;51.964;7.628;2024-02-21T04:01:00;15.10;;;10.30;;
2998;SDS011;1509;51.964;7.628;2024-02-21T04:03:27;23.10;;;10.63;;
2998;SDS011;1509;51.964;7.628;2024-02-21T04:05:52;19.50;;;10.13;;
2998;SDS011;1509;51.964;7.628;2024-02-21T04:08:18;22.50;;;10.87;;
2998;SDS011;1509;51.964;7.628;2024-02-21T04:10:44;20.40;;;10.63;;
2998;SDS011;1509;51.964;7.628;2024-02-21T04:13:09;16.40;;;9.73;;
2998;SDS011;1509;51.964;7.628;2024-02-21T04:15:35;18.30;;;10.23;;
2998;SDS011;1509;51.964;7.628;2024-02-21T04:18:01;17.60;;;10.97;;
2998;SDS011;1509;51.964;7.628;2024-02-21T04:20:28;18.37;;;8.63;;
2998;SDS011;1509;51.964;7.628;2024-02-21T04:22:54;16.53;;;10.03;;
2998;SDS011;1509;51.964;7.628;2024-02-21T04:25:20;17.67;;;9.40;;
2998;SDS011;1509;51.964;7.628;2024-02-21T04:27:45;22.43;;;9.27;;
2998;SDS011;1509;51.964;7.628;2024-02-21T04:30:11;15.07;;;9.73;;
2998;SDS011;1509;51.964;7.628;2024-02-21T04:32:37;17.83;;;9.20;;
2998;SDS011;1509;51.964;7.628;2024-02-21T04:35:03;13.70;;;7.93;;
2998;SDS011;1509;51.964;7.628;2024-02-21T04:37:29;18.00;;;8.70;;
2998;SDS011;1509;51.964;7.628;2024-02-21T04:39:55;17.37;;;10.00;;
2998;SDS011;1509;51.964;7.628;2024-02-21T04:42:21;16.60;;;8.47;;
2998;SDS011;1509;51.964;7.628;2024-02-21T04:44:47;14.53;;;8.37;;
2998;SDS011;1509;51.964;7.628;2024-02-21T04:47:12;17.03;;;9.13;;
2998;SDS011;1509;51.964;7.628;2024-02-21T04:49:38;16.67;;;9.93;;
2998;SDS011;1509;51.964;7.628;2024-02-21T04:52:04;16.80;;;9.27;;
2998;SDS011;1509;51.964;7.628;2024-02-21T04:54:29;15.10;;;8.70;;
2998;SDS011;1509;51.964;7.628;2024-02-21T04:56:55;14.73;;;8.17;;
2998;SDS011;1509;51.964;7.628;2024-02-21T04:59:20;15.37;;;9.77;;
2998;SDS011;1509;51.964;7.628;2024-02-21T05:01:46;16.87;;;9.30;;
2998;SDS011;1509;51.964;7.628;2024-02-21T05:04:12;21.07;;;9.33;;
2998;SDS011;1509;51.964;7.628;2024-02-21T05:06:40;18.43;;;9.67;;
2998;SDS011;1509;51.964;7.628;2024-02-21T05:09:07;17.70;;;8.63;;
2998;SDS011;1509;51.964;7.628;2024-02-21T05:11:35;24.17;;;8.77;;
2998;SDS011;1509;51.964;7.628;2024-02-21T05:14:01;13.67;;;8.83;;
2998;SDS011;1509;51.964;7.628;2024-02-21T05:16:26;15.20;;;9.17;;
2998;SDS011;1509;51.964;7.628;2024-02-21T05:18:52;18.10;;;8.73;;
2998;SDS011;1509;51.964;7.628;2024-02-21T05:21:18;14.70;;;8.43;;
2998;SDS011;1509;51.964;7.628;2024-02-21T05:23:44;16.57;;;9.10;;
2998;SDS011;1509;51.964;7.628;2024-02-21T05:26:09;16.40;;;10.47;;
2998;SDS011;1509;51.964;7.628;2024-02-21T05:28:35;18.10;;;8.63;;
2998;SDS011;1509;51.964;7.628;2024-02-21T05:31:01;13.67;;;7.47;;
2998;SDS011;1509;51.964;7.628;2024-02-21T05:33:26;13.83;;;8.27;;
2998;SDS011;1509;51.964;7.628;2024-02-21T05:35:52;18.07;;;9.10;;
2998;SDS011;1509;51.964;7.628;2024-02-21T05:38:18;16.73;;;8.87;;
2998;SDS011;1509;51.964;7.628;2024-02-21T05:40:46;13.00;;;7.60;;
2998;SDS011;1509;51.964;7.628;2024-02-21T05:43:13;18.17;;;7.83;;
2998;SDS011;1509;51.964;7.628;2024-02-21T05:45:39;21.03;;;8.97;;
2998;SDS011;1509;51.964;7.628;2024-02-21T05:48:04;17.97;;;8.67;;
2998;SDS011;1509;51.964;7.628;2024-02-21T05:50:30;14.77;;;7.30;;
2998;SDS011;1509;51.964;7.628;2024-02-21T05:52:57;13.07;;;7.73;;
2998;SDS011;1509;51.964;7.628;2024-02-21T05:55:23;17.43;;;8.80;;
2998;SDS011;1509;51.964;7.628;2024-02-21T05:57:48;20.80;;;7.13;;
2998;SDS011;1509;51.964;7.628;2024-02-21T06:00:14;12.13;;;7.43;;
2998;SDS011;1509;51.964;7.628;2024-02-21T06:02:43;17.23;;;8.47;;
2998;SDS011;1509;51.964;7.628;2024-02-21T06:05:08;14.90;;;7.77;;
2998;SDS011;1509;51.964;7.628;2024-02-21T06:07:34;11.57;;;8.03;;
2998;SDS011;1509;51.964;7.628;2024-02-21T06:10:01;13.00;;;7.10;;
2998;SDS011;1509;51.964;7.628;2024-02-21T06:12:27;14.80;;;7.80;;
2998;SDS011;1509;51.964;7.628;2024-02-21T06:14:53;14.50;;;8.60;;
2998;SDS011;1509;51.964;7.628;2024-02-21T06:17:19;14.60;;;8.40;;
2998;SDS011;1509;51.964;7.628;2024-02-21T06:19:44;13.03;;;7.83;;
2998;SDS011;1509;51.964;7.628;2024-02-21T06:22:10;14.10;;;6.97;;
2998;SDS011;1509;51.964;7.628;2024-02-21T06:24:37;14.10;;;8.03;;
2998;SDS011;1509;51.964;7.628;2024-02-21T06:27:03;16.73;;;8.43;;
2998;SDS011;1509;51.964;7.628;2024-02-21T06:29:34;17.30;;;9.10;;
2998;SDS011;1509;51.964;7.628;2024-02-21T06:32:00;17.90;;;8.80;;
2998;SDS011;1509;51.964;7.628;2024-02-21T06:34:27;13.70;;;9.17;;
2998;SDS011;1509;51.964;7.628;2024-02-21T06:36:52;16.17;;;8.20;;
2998;SDS011;1509;51.964;7.628;2024-02-21T06:39:18;15.93;;;8.50;;
2998;SDS011;1509;51.964;7.628;2024-02-21T06:41:44;19.10;;;8.80;;
2998;SDS011;1509;51.964;7.628;2024-02-21T06:44:09;15.73;;;8.07;;
2998;SDS011;1509;51.964;7.628;2024-02-21T06:46:35;18.27;;;9.43;;
2998;SDS011;1509;51.964;7.628;2024-02-21T06:49:01;19.10;;;9.80;;
2998;SDS011;1509;51.964;7.628;2024-02-21T06:51:28;16.23;;;9.00;;
2998;SDS011;1509;51.964;7.628;2024-02-21T06:53:54;13.73;;;7.83;;
2998;SDS011;1509;51.964;7.628;2024-02-21T06:56:20;15.13;;;8.50;;
2998;SDS011;1509;51.964;7.628;2024-02-21T06:58:51;14.87;;;8.73;;
2998;SDS011;1509;51.964;7.628;2024-02-21T07:01:17;13.30;;;8.20;;
2998;SDS011;1509;51.964;7.628;2024-02-21T07:03:43;16.47;;;9.47;;
2998;SDS011;1509;51.964;7.628;2024-02-21T07:06:08;18.57;;;9.13;;
2998;SDS011;1509;51.964;7.628;2024-02-21T07:08:34;18.00;;;8.63;;
2998;SDS011;1509;51.964;7.628;2024-02-21T07:10:59;15.43;;;7.60;;
2998;SDS011;1509;51.964;7.628;2024-02-21T07:13:25;14.93;;;8.13;;
2998;SDS011;1509;51.964;7.628;2024-02-21T07:15:51;13.33;;;7.50;;
2998;SDS011;1509;51.964;7.628;2024-02-21T07:18:16;18.00;;;8.53;;
2998;SDS011;1509;51.964;7.628;2024-02-21T07:20:42;11.50;;;7.07;;
2998;SDS011;1509;51.964;7.628;2024-02-21T07:23:08;15.63;;;8.73;;
2998;SDS011;1509;51.964;7.628;2024-02-21T07:25:34;16.30;;;7.00;;
2998;SDS011;1509;51.964;7.628;2024-02-21T07:27:59;12.73;;;7.47;;
2998;SDS011;1509;51.964;7.628;2024-02-21T07:30:25;16.53;;;7.20;;
2998;SDS011;1509;51.964;7.628;2024-02-21T07:32:51;12.60;;;7.57;;
2998;SDS011;1509;51.964;7.628;2024-02-21T07:35:19;13.07;;;7.40;;
2998;SDS011;1509;51.964;7.628;2024-02-21T07:37:45;17.40;;;7.03;;
2998;SDS011;1509;51.964;7.628;2024-02-21T07:40:14;10.40;;;6.07;;
2998;SDS011;1509;51.964;7.628;2024-02-21T07:42:41;15.63;;;6.50;;
2998;SDS011;1509;51.964;7.628;2024-02-21T07:45:07;10.10;;;6.40;;
2998;SDS011;1509;51.964;7.628;2024-02-21T07:47:33;12.07;;;6.80;;
2998;SDS011;1509;51.964;7.628;2024-02-21T07:49:59;14.33;;;7.30;;
2998;SDS011;1509;51.964;7.628;2024-02-21T07:52:25;12.37;;;7.03;;
2998;SDS011;1509;51.964;7.628;2024-02-21T07:54:51;13.00;;;7.67;;
2998;SDS011;1509;51.964;7.628;2024-02-21T07:57:16;12.73;;;6.17;;
2998;SDS011;1509;51.964;7.628;2024-02-21T07:59:42;14.50;;;7.87;;
2998;SDS011;1509;51.964;7.628;2024-02-21T08:02:07;10.13;;;6.77;;
2998;SDS011;1509;51.964;7.628;2024-02-21T08:04:33;11.60;;;6.90;;
2998;SDS011;1509;51.964;7.628;2024-02-21T08:06:59;11.17;;;6.43;;
2998;SDS011;1509;51.964;7.628;2024-02-21T08:09:27;13.10;;;6.30;;
2998;SDS011;1509;51.964;7.628;2024-02-21T08:11:54;11.63;;;6.17;;
2998;SDS011;1509;51.964;7.628;2024-02-21T08:14:20;11.40;;;6.10;;
2998;SDS011;1509;51.964;7.628;2024-02-21T08:16:46;10.83;;;5.17;;
2998;SDS011;1509;51.964;7.628;2024-02-21T08:19:11;13.83;;;5.30;;
2998;SDS011;1509;51.964;7.628;2024-02-21T08:21:37;9.50;;;5.90;;
2998;SDS011;1509;51.964;7.628;2024-02-21T08:24:04;8.13;;;6.00;;
2998;SDS011;1509;51.964;7.628;2024-02-21T08:26:30;10.50;;;5.60;;
2998;SDS011;1509;51.964;7.628;2024-02-21T08:28:58;9.00;;;5.13;;
2998;SDS011;1509;51.964;7.628;2024-02-21T08:31:25;9.80;;;4.83;;
2998;SDS011;1509;51.964;7.628;2024-02-21T08:33:58;12.67;;;5.93;;
2998;SDS011;1509;51.964;7.628;2024-02-21T08:36:38;11.23;;;5.40;;
2998;SDS011;1509;51.964;7.628;2024-02-21T08:39:04;12.90;;;5.43;;
2998;SDS011;1509;51.964;7.628;2024-02-21T08:41:33;7.70;;;4.43;;
2998;SDS011;1509;51.964;7.628;2024-02-21T08:43:59;8.73;;;5.63;;
2998;SDS011;1509;51.964;7.628;2024-02-21T08:46:28;8.97;;;5.03;;
2998;SDS011;1509;51.964;7.628;2024-02-21T08:48:54;8.60;;;5.47;;
2998;SDS011;1509;51.964;7.628;2024-02-21T08:51:19;9.97;;;5.23;;
2998;SDS011;1509;51.964;7.628;2024-02-21T08:53:45;9.47;;;4.80;;
2998;SDS011;1509;51.964;7.628;2024-02-21T08:56:11;9.57;;;5.10;;
2998;SDS011;1509;51.964;7.628;2024-02-21T08:58:37;9.03;;;5.20;;
2998;SDS011;1509;51.964;7.628;2024-02-21T09:01:04;9.80;;;5.03;;
2998;SDS011;1509;51.964;7.628;2024-02-21T09:03:33;8.67;;;5.30;;
2998;SDS011;1509;51.964;7.628;2024-02-21T09:05:59;8.70;;;4.67;;
2998;SDS011;1509;51.964;7.628;2024-02-21T09:08:25;10.70;;;5.80;;
2998;SDS011;1509;51.964;7.628;2024-02-21T09:10:52;8.57;;;4.03;;
2998;SDS011;1509;51.964;7.628;2024-02-21T09:13:18;10.17;;;4.83;;
2998;SDS011;1509;51.964;7.628;2024-02-21T09:15:43;8.90;;;4.90;;
2998;SDS011;1509;51.964;7.628;2024-02-21T09:18:09;7.77;;;4.73;;
2998;SDS011;1509;51.964;7.628;2024-02-21T09:20:35;8.27;;;5.13;;
2998;SDS011;1509;51.964;7.628;2024-02-21T09:23:00;8.60;;;5.40;;
2998;SDS011;1509;51.964;7.628;2024-02-21T09:25:26;8.33;;;4.67;;
2998;SDS011;1509;51.964;7.628;2024-02-21T09:27:53;10.23;;;5.63;;
2998;SDS011;1509;51.964;7.628;2024-02-21T09:30:19;7.37;;;4.60;;
2998;SDS011;1509;51.964;7.628;2024-02-21T09:32:45;9.43;;;5.63;;
2998;SDS011;1509;51.964;7.628;2024-02-21T09:35:11;10.70;;;4.60;;
2998;SDS011;1509;51.964;7.628;2024-02-21T09:37:38;9.57;;;5.57;;
2998;SDS011;1509;51.964;7.628;2024-02-21T09:40:07;13.13;;;6.13;;
2998;SDS011;1509;51.964;7.628;2024-02-21T09:42:39;13.10;;;5.20;;
2998;SDS011;1509;51.964;7.628;2024-02-21T09:45:21;11.30;;;5.20;;
2998;SDS011;1509;51.964;7.628;2024-02-21T09:50:53;9.80;;;5.27;;
2998;SDS011;1509;51.964;7.628;2024-02-21T09:53:24;13.50;;;5.50;;
2998;SDS011;1509;51.964;7.628;2024-02-21T09:55:51;8.33;;;4.87;;
2998;SDS011;1509;51.964;7.628;2024-02-21T09:58:17;17.43;;;6.13;;
2998;SDS011;1509;51.964;7.628;2024-02-21T10:00:43;8.80;;;5.30;;
2998;SDS011;1509;51.964;7.628;2024-02-21T10:03:09;9.97;;;5.77;;
2998;SDS011;1509;51.964;7.628;2024-02-21T10:05:35;7.70;;;5.00;;
2998;SDS011;1509;51.964;7.628;2024-02-21T10:08:01;8.63;;;4.83;;
2998;SDS011;1509;51.964;7.628;2024-02-21T10:10:27;10.33;;;5.20;;
2998;SDS011;1509;51.964;7.628;2024-02-21T10:12:54;8.03;;;5.10;;
2998;SDS011;1509;51.964;7.628;2024-02-21T10:15:21;7.77;;;4.90;;
2998;SDS011;1509;51.964;7.628;2024-02-21T10:18:02;8.27;;;4.40;;
2998;SDS011;1509;51.964;7.628;2024-02-21T10:20:31;14.63;;;4.33;;
2998;SDS011;1509;51.964;7.628;2024-02-21T10:23:02;7.93;;;5.00;;
2998;SDS011;1509;51.964;7.628;2024-02-21T10:25:32;9.00;;;6.40;;
2998;SDS011;1509;51.964;7.628;2024-02-21T10:27:59;12.10;;;6.87;;
2998;SDS011;1509;51.964;7.628;2024-02-21T10:30:24;19.30;;;7.10;;
2998;SDS011;1509;51.964;7.628;2024-02-21T10:32:50;13.50;;;6.60;;
2998;SDS011;1509;51.964;7.628;2024-02-21T10:35:25;13.97;;;7.40;;
2998;SDS011;1509;51.964;7.628;2024-02-21T10:37:56;10.67;;;6.00;;
2998;SDS011;1509;51.964;7.628;2024-02-21T10:40:25;8.33;;;5.60;;
2998;SDS011;1509;51.964;7.628;2024-02-21T10:42:55;6.87;;;3.83;;
2998;SDS011;1509;51.964;7.628;2024-02-21T10:45:25;8.77;;;4.30;;
2998;SDS011;1509;51.964;7.628;2024-02-21T10:47:59;9.77;;;4.37;;
2998;SDS011;1509;51.964;7.628;2024-02-21T10:50:53;7.83;;;4.10;;
2998;SDS011;1509;51.964;7.628;2024-02-21T10:56:45;5.13;;;3.40;;
2998;SDS011;1509;51.964;7.628;2024-02-21T10:59:12;6.40;;;4.10;;
2998;SDS011;1509;51.964;7.628;2024-02-21T11:01:38;8.40;;;3.60;;
2998;SDS011;1509;51.964;7.628;2024-02-21T11:04:05;4.70;;;3.60;;
2998;SDS011;1509;51.964;7.628;2024-02-21T11:06:32;6.33;;;3.97;;
2998;SDS011;1509;51.964;7.628;2024-02-21T11:09:08;7.20;;;3.20;;
2998;SDS011;1509;51.964;7.628;2024-02-21T11:11:35;4.53;;;3.53;;
2998;SDS011;1509;51.964;7.628;2024-02-21T11:16:37;5.13;;;3.30;;
2998;SDS011;1509;51.964;7.628;2024-02-21T11:19:18;5.60;;;3.30;;
2998;SDS011;1509;51.964;7.628;2024-02-21T11:21:45;7.10;;;4.57;;
2998;SDS011;1509;51.964;7.628;2024-02-21T11:24:10;13.00;;;6.17;;
2998;SDS011;1509;51.964;7.628;2024-02-21T11:26:37;6.80;;;4.97;;
2998;SDS011;1509;51.964;7.628;2024-02-21T11:29:03;8.03;;;5.37;;
2998;SDS011;1509;51.964;7.628;2024-02-21T11:31:43;8.90;;;5.77;;
2998;SDS011;1509;51.964;7.628;2024-02-21T11:34:13;8.20;;;5.40;;
2998;SDS011;1509;51.964;7.628;2024-02-21T11:36:48;10.70;;;5.50;;
2998;SDS011;1509;51.964;7.628;2024-02-21T11:39:19;10.20;;;5.67;;
2998;SDS011;1509;51.964;7.628;2024-02-21T11:42:01;13.83;;;5.87;;
2998;SDS011;1509;51.964;7.628;2024-02-21T11:44:26;10.37;;;4.93;;
2998;SDS011;1509;51.964;7.628;2024-02-21T11:46:52;13.13;;;6.60;;
2998;SDS011;1509;51.964;7.628;2024-02-21T11:49:18;19.07;;;7.27;;
2998;SDS011;1509;51.964;7.628;2024-02-21T11:51:43;6.83;;;5.33;;
2998;SDS011;1509;51.964;7.628;2024-02-21T11:54:10;13.60;;;6.43;;
2998;SDS011;1509;51.964;7.628;2024-02-21T11:56:38;7.70;;;4.87;;
2998;SDS011;1509;51.964;7.628;2024-02-21T11:59:04;12.17;;;5.40;;
2998;SDS011;1509;51.964;7.628;2024-02-21T12:01:31;8.30;;;5.27;;
2998;SDS011;1509;51.964;7.628;2024-02-21T12:03:57;11.00;;;5.00;;
2998;SDS011;1509;51.964;7.628;2024-02-21T12:06:22;6.50;;;4.20;;
2998;SDS011;1509;51.964;7.628;2024-02-21T12:08:51;8.07;;;5.40;;
2998;SDS011;1509;51.964;7.628;2024-02-21T12:11:21;9.53;;;5.70;;
2998;SDS011;1509;51.964;7.628;2024-02-21T12:13:57;12.43;;;6.00;;
2998;SDS011;1509;51.964;7.628;2024-02-21T12:16:28;7.93;;;5.17;;
2998;SDS011;1509;51.964;7.628;2024-02-21T12:18:55;9.03;;;5.37;;
2998;SDS011;1509;51.964;7.628;2024-02-21T12:21:25;7.00;;;4.70;;
2998;SDS011;1509;51.964;7.628;2024-02-21T12:23:53;9.33;;;5.77;;
2998;SDS011;1509;51.964;7.628;2024-02-21T12:26:20;10.03;;;5.60;;
2998;SDS011;1509;51.964;7.628;2024-02-21T12:28:45;9.07;;;5.20;;
2998;SDS011;1509;51.964;7.628;2024-02-21T12:31:11;10.40;;;4.60;;
2998;SDS011;1509;51.964;7.628;2024-02-21T12:33:37;9.20;;;5.63;;
2998;SDS011;1509;51.964;7.628;2024-02-21T12:36:03;7.30;;;4.10;;
2998;SDS011;1509;51.964;7.628;2024-02-21T12:38:29;8.43;;;5.10;;
2998;SDS011;1509;51.964;7.628;2024-02-21T12:40:55;8.47;;;4.77;;
2998;SDS011;1509;51.964;7.628;2024-02-21T12:43:22;9.13;;;4.43;;
2998;SDS011;1509;51.964;7.628;2024-02-21T12:45:48;7.80;;;5.27;;
2998;SDS011;1509;51.964;7.628;2024-02-21T12:48:14;7.47;;;4.63;;
2998;SDS011;1509;51.964;7.628;2024-02-21T12:50:40;7.20;;;3.60;;
2998;SDS011;1509;51.964;7.628;2024-02-21T12:53:12;6.27;;;3.63;;
2998;SDS011;1509;51.964;7.628;2024-02-21T12:55:40;5.90;;;4.03;;
2998;SDS011;1509;51.964;7.628;2024-02-21T12:58:06;6.23;;;4.20;;
2998;SDS011;1509;51.964;7.628;2024-02-21T13:00:32;6.17;;;4.20;;
2998;SDS011;1509;51.964;7.628;2024-02-21T13:02:57;7.50;;;5.07;;
2998;SDS011;1509;51.964;7.628;2024-02-21T13:05:23;8.70;;;4.50;;
2998;SDS011;1509;51.964;7.628;2024-02-21T13:07:49;8.30;;;4.33;;
2998;SDS011;1509;51.964;7.628;2024-02-21T13:10:15;8.30;;;5.53;;
2998;SDS011;1509;51.964;7.628;2024-02-21T13:12:40;7.90;;;4.97;;
2998;SDS011;1509;51.964;7.628;2024-02-21T13:15:06;8.60;;;5.83;;
2998;SDS011;1509;51.964;7.628;2024-02-21T13:17:34;5.43;;;4.73;;
2998;SDS011;1509;51.964;7.628;2024-02-21T13:20:03;8.17;;;5.73;;
2998;SDS011;1509;51.964;7.628;2024-02-21T13:22:30;8.00;;;5.40;;
2998;SDS011;1509;51.964;7.628;2024-02-21T13:24:56;13.43;;;5.70;;
2998;SDS011;1509;51.964;7.628;2024-02-21T13:27:22;12.07;;;6.30;;
2998;SDS011;1509;51.964;7.628;2024-02-21T13:29:48;10.23;;;6.70;;
2998;SDS011;1509;51.964;7.628;2024-02-21T13:32:13;13.00;;;6.50;;
2998;SDS011;1509;51.964;7.628;2024-02-21T13:34:40;9.40;;;5.93;;
2998;SDS011;1509;51.964;7.628;2024-02-21T13:37:07;10.90;;;6.80;;
2998;SDS011;1509;51.964;7.628;2024-02-21T13:39:34;12.17;;;6.77;;
2998;SDS011;1509;51.964;7.628;2024-02-21T13:42:02;9.57;;;6.50;;
2998;SDS011;1509;51.964;7.628;2024-02-21T13:44:30;10.63;;;6.13;;
2998;SDS011;1509;51.964;7.628;2024-02-21T13:46:59;9.17;;;6.10;;
2998;SDS011;1509;51.964;7.628;2024-02-21T13:49:25;9.90;;;5.50;;
2998;SDS011;1509;51.964;7.628;2024-02-21T13:51:50;7.33;;;6.37;;
2998;SDS011;1509;51.964;7.628;2024-02-21T13:54:16;9.97;;;5.83;;
2998;SDS011;1509;51.964;7.628;2024-02-21T13:56:44;9.80;;;6.03;;
2998;SDS011;1509;51.964;7.628;2024-02-21T13:59:10;7.43;;;5.20;;
2998;SDS011;1509;51.964;7.628;2024-02-21T14:01:38;9.40;;;5.87;;
2998;SDS011;1509;51.964;7.628;2024-02-21T14:04:04;10.37;;;6.40;;
2998;SDS011;1509;51.964;7.628;2024-02-21T14:06:29;7.33;;;6.03;;
2998;SDS011;1509;51.964;7.628;2024-02-21T14:08:55;10.10;;;5.90;;
2998;SDS011;1509;51.964;7.628;2024-02-21T14:11:21;13.33;;;7.40;;
2998;SDS011;1509;51.964;7.628;2024-02-21T14:13:46;10.47;;;5.40;;
2998;SDS011;1509;51.964;7.628;2024-02-21T14:16:12;9.33;;;5.00;;
2998;SDS011;1509;51.964;7.628;2024-02-21T14:18:40;8.83;;;5.10;;
2998;SDS011;1509;51.964;7.628;2024-02-21T14:21:07;9.50;;;5.10;;
2998;SDS011;1509;51.964;7.628;2024-02-21T14:23:35;11.13;;;5.57;;
2998;SDS011;1509;51.964;7.628;2024-02-21T14:26:02;12.93;;;5.60;;
2998;SDS011;1509;51.964;7.628;2024-02-21T14:28:28;7.57;;;5.10;;
2998;SDS011;1509;51.964;7.628;2024-02-21T14:30:54;10.53;;;7.20;;
2998;SDS011;1509;51.964;7.628;2024-02-21T14:33:22;9.43;;;5.40;;
2998;SDS011;1509;51.964;7.628;2024-02-21T14:35:50;7.93;;;4.60;;
2998;SDS011;1509;51.964;7.628;2024-02-21T14:38:16;8.77;;;4.33;;
2998;SDS011;1509;51.964;7.628;2024-02-21T14:40:43;9.30;;;4.10;;
2998;SDS011;1509;51.964;7.628;2024-02-21T14:43:08;6.70;;;3.80;;
2998;SDS011;1509;51.964;7.628;2024-02-21T14:45:34;6.07;;;3.73;;
2998;SDS011;1509;51.964;7.628;2024-02-21T14:48:02;10.77;;;3.57;;
2998;SDS011;1509;51.964;7.628;2024-02-21T14:50:29;5.90;;;3.33;;
2998;SDS011;1509;51.964;7.628;2024-02-21T14:52:54;9.77;;;4.47;;
2998;SDS011;1509;51.964;7.628;2024-02-21T14:55:20;7.17;;;3.90;;
2998;SDS011;1509;51.964;7.628;2024-02-21T14:57:45;7.20;;;3.60;;
2998;SDS011;1509;51.964;7.628;2024-02-21T15:00:11;6.80;;;4.13;;
2998;SDS011;1509;51.964;7.628;2024-02-21T15:02:37;9.43;;;4.27;;
2998;SDS011;1509;51.964;7.628;2024-02-21T15:05:04;9.07;;;3.60;;
2998;SDS011;1509;51.964;7.628;2024-02-21T15:07:30;7.27;;;3.30;;
2998;SDS011;1509;51.964;7.628;2024-02-21T15:09:57;11.10;;;3.70;;